Time;durP1;ratioP1;P1;durP2;ratioP2;P2;SDS_P1;SDS_P2;PMS_P1;PMS_P2;Temp;Humidity;BMP_temperature;BMP_pressure;BME280_temperature;BME280_humidity;BME280_pressure;Samples;Min_cycle;Max_cycle;Signal;HPM_P1;HPM_P2
2023/01/20 00:01:30;;;;;;;19.80;9.93;;;-1.30;99.90;;;;;;5031277;28;20451;-77
2023/01/20 00:03:56;;;;;;;23.97;10.73;;;-1.30;99.90;;;;;;5029414;28;20021;-77
2023/01/20 00:06:23;;;;;;;19.00;8.50;;;-1.30;99.90;;;;;;5033528;28;20029;-78
2023/01/20 00:08:53;;;;;;;13.33;7.70;;;-1.30;99.90;;;;;;5029762;28;20026;-77
2023/01/20 00:11:19;;;;;;;13.10;6.97;;;-1.30;99.90;;;;;;5030032;28;20030;-77
2023/01/20 00:13:45;;;;;;;11.67;7.13;;;-1.30;99.90;;;;;;5029472;28;20038;-77
2023/01/20 00:16:11;;;;;;;12.10;7.20;;;-1.30;99.90;;;;;;5025191;28;20398;-77
2023/01/20 00:18:38;;;;;;;12.67;7.60;;;-1.30;99.90;;;;;;5027774;28;20064;-77
2023/01/20 00:21:05;;;;;;;14.47;7.23;;;-1.30;99.90;;;;;;5026447;28;20032;-77
2023/01/20 00:23:32;;;;;;;13.43;6.67;;;-1.40;99.90;;;;;;5030913;28;20056;-77
2023/01/20 00:25:57;;;;;;;12.50;6.73;;;-1.40;99.90;;;;;;5032296;28;20022;-77
2023/01/20 00:28:23;;;;;;;12.87;6.70;;;-1.30;99.90;;;;;;5027880;28;20490;-77
2023/01/20 00:30:48;;;;;;;12.87;6.47;;;-1.40;99.90;;;;;;5015677;28;20021;-77
2023/01/20 00:33:14;;;;;;;17.83;7.43;;;-1.40;99.90;;;;;;5030224;28;20036;-77
2023/01/20 00:35:40;;;;;;;11.03;7.00;;;-1.40;99.90;;;;;;5031756;28;20026;-77
2023/01/20 00:38:05;;;;;;;11.87;6.70;;;-1.40;99.90;;;;;;5024591;28;20478;-77
2023/01/20 00:40:32;;;;;;;11.03;6.67;;;-1.40;99.90;;;;;;5031763;28;20485;-77
2023/01/20 00:42:57;;;;;;;16.33;7.17;;;-1.40;99.90;;;;;;5032944;28;20053;-77
2023/01/20 00:45:23;;;;;;;16.10;7.00;;;-1.40;99.90;;;;;;5031287;28;20072;-77
2023/01/20 00:47:48;;;;;;;12.50;6.80;;;-1.40;99.90;;;;;;5018629;28;20033;-77
2023/01/20 00:50:14;;;;;;;12.13;6.43;;;-1.40;99.90;;;;;;5026524;28;20037;-77
2023/01/20 00:52:40;;;;;;;12.63;6.83;;;-1.40;99.90;;;;;;5032727;28;20025;-77
2023/01/20 00:55:05;;;;;;;12.73;6.77;;;-1.40;99.90;;;;;;5007737;28;20049;-77
2023/01/20 00:57:31;;;;;;;12.27;6.47;;;-1.40;99.90;;;;;;5021959;28;20065;-77
2023/01/20 00:59:56;;;;;;;14.43;6.90;;;-1.40;99.90;;;;;;5029409;28;20037;-77
2023/01/20 01:02:22;;;;;;;11.80;6.40;;;-1.40;99.90;;;;;;5028787;28;20038;-77
2023/01/20 01:04:50;;;;;;;15.33;7.27;;;-1.40;99.90;;;;;;5030978;28;20030;-77
2023/01/20 01:07:17;;;;;;;12.60;6.70;;;-1.40;99.90;;;;;;5021658;28;20034;-78
2023/01/20 01:09:42;;;;;;;11.70;6.93;;;-1.40;99.90;;;;;;5031962;28;20070;-78
2023/01/20 01:12:08;;;;;;;17.47;6.83;;;-1.40;99.90;;;;;;5030440;28;20034;-78
2023/01/20 01:14:34;;;;;;;9.67;6.23;;;-1.40;99.90;;;;;;5027518;28;20037;-78
2023/01/20 01:16:59;;;;;;;13.70;6.27;;;-1.40;99.90;;;;;;5012716;28;20041;-77
2023/01/20 01:19:25;;;;;;;10.47;5.83;;;-1.40;99.90;;;;;;5026771;28;20091;-81
2023/01/20 01:21:50;;;;;;;12.73;6.70;;;-1.40;99.90;;;;;;5028381;28;20025;-82
2023/01/20 01:24:16;;;;;;;11.57;6.27;;;-1.40;99.90;;;;;;5029426;28;20433;-82
2023/01/20 01:26:41;;;;;;;15.10;7.53;;;-1.30;99.90;;;;;;5029394;28;20025;-81
2023/01/20 01:29:07;;;;;;;12.90;6.33;;;-1.40;99.90;;;;;;5026800;28;20025;-81
2023/01/20 01:31:32;;;;;;;14.30;8.00;;;-1.40;99.90;;;;;;5028352;28;20462;-81
2023/01/20 01:33:58;;;;;;;12.67;6.87;;;-1.40;99.90;;;;;;5027054;28;20650;-82
2023/01/20 01:36:23;;;;;;;12.07;7.63;;;-1.40;99.90;;;;;;5027456;28;20037;-82
2023/01/20 01:38:49;;;;;;;12.40;7.07;;;-1.40;99.90;;;;;;5027240;28;20033;-81
2023/01/20 01:41:16;;;;;;;11.60;7.43;;;-1.40;99.90;;;;;;5013241;28;20057;-77
2023/01/20 01:44:06;;;;;;;18.53;8.03;;;-1.40;99.90;;;;;;5021480;28;20022;-77
2023/01/20 01:46:32;;;;;;;19.90;9.93;;;-1.40;99.90;;;;;;5032515;28;20025;-77
2023/01/20 01:49:03;;;;;;;17.37;8.77;;;-1.40;99.90;;;;;;5023199;28;20523;-78
2023/01/20 01:51:35;;;;;;;15.10;7.77;;;-1.40;99.90;;;;;;5026602;28;20033;-77
2023/01/20 01:54:08;;;;;;;11.90;6.77;;;-1.40;99.90;;;;;;5028676;28;20026;-77
2023/01/20 01:56:35;;;;;;;15.20;7.00;;;-1.40;99.90;;;;;;5032142;28;20446;-77
2023/01/20 01:59:03;;;;;;;11.13;6.43;;;-1.40;99.90;;;;;;5022840;28;20026;-77
2023/01/20 02:01:33;;;;;;;11.00;6.17;;;-1.40;99.90;;;;;;5003934;28;20026;-77
2023/01/20 02:04:06;;;;;;;11.73;6.17;;;-1.40;99.90;;;;;;5027081;28;20053;-77
2023/01/20 02:06:34;;;;;;;13.07;6.60;;;-1.50;99.90;;;;;;5026584;28;20029;-77
2023/01/20 02:09:03;;;;;;;9.60;5.77;;;-1.50;99.90;;;;;;5027798;28;20032;-77
2023/01/20 02:11:31;;;;;;;10.97;5.77;;;-1.50;99.90;;;;;;5010397;28;20350;-76
2023/01/20 02:13:57;;;;;;;11.13;5.53;;;-1.50;99.90;;;;;;5032259;28;20041;-77
2023/01/20 02:16:40;;;;;;;13.53;6.50;;;-1.50;99.90;;;;;;5025243;28;20044;-77
2023/01/20 02:19:36;;;;;;;10.20;5.47;;;-1.60;99.90;;;;;;5023841;28;20025;-77
2023/01/20 02:22:07;;;;;;;9.25;5.80;;;-1.50;99.90;;;;;;5028174;28;20390;-77
2023/01/20 02:24:33;;;;;;;13.13;6.53;;;-1.60;99.90;;;;;;5032723;28;20026;-77
2023/01/20 02:27:13;;;;;;;10.83;6.30;;;-1.50;99.90;;;;;;5023165;28;20351;-77
2023/01/20 02:29:55;;;;;;;10.37;5.67;;;-1.50;99.90;;;;;;5031203;28;20028;-77
2023/01/20 02:32:46;;;;;;;9.87;6.17;;;-1.50;99.90;;;;;;5007448;28;20160;-77
2023/01/20 02:35:26;;;;;;;8.97;5.03;;;-1.50;99.90;;;;;;5001483;28;20116;-77
2023/01/20 02:38:39;;;;;;;10.27;4.90;;;-1.50;99.90;;;;;;5026483;28;20638;-77
2023/01/20 02:41:09;;;;;;;10.93;5.50;;;-1.50;99.90;;;;;;5010018;28;20079;-77
2023/01/20 02:43:43;;;;;;;13.67;5.93;;;-1.50;99.90;;;;;;5032686;28;20075;-77
2023/01/20 02:46:16;;;;;;;9.75;5.78;;;-1.50;99.90;;;;;;5028547;28;20397;-78
2023/01/20 02:49:03;;;;;;;9.67;4.50;;;-1.50;99.90;;;;;;5032668;28;20393;-77
2023/01/20 02:51:34;;;;;;;10.17;5.63;;;-1.50;99.90;;;;;;5009849;28;20103;-77
2023/01/20 02:54:04;;;;;;;9.50;5.17;;;-1.50;99.90;;;;;;5013699;28;20363;-77
2023/01/20 02:56:32;;;;;;;9.67;4.47;;;-1.50;99.90;;;;;;5026599;28;20030;-77
2023/01/20 02:59:00;;;;;;;8.03;5.13;;;-1.50;99.90;;;;;;5012375;28;20026;-77
2023/01/20 03:01:34;;;;;;;9.93;5.10;;;-1.50;99.90;;;;;;5013190;28;20033;-77
2023/01/20 03:04:02;;;;;;;8.93;5.03;;;-1.50;99.90;;;;;;5031941;28;20535;-77
2023/01/20 03:06:35;;;;;;;10.43;5.30;;;-1.50;99.90;;;;;;5033751;28;20068;-77
2023/01/20 03:09:04;;;;;;;10.10;5.07;;;-1.50;99.90;;;;;;5036517;28;20028;-77
2023/01/20 03:11:35;;;;;;;9.77;4.70;;;-1.50;99.90;;;;;;5036065;28;20071;-77
2023/01/20 03:14:07;;;;;;;12.93;5.00;;;-1.50;99.90;;;;;;5036257;28;20028;-77
2023/01/20 03:16:33;;;;;;;7.03;4.63;;;-1.50;99.90;;;;;;5036093;28;20031;-77
2023/01/20 03:18:59;;;;;;;9.27;5.73;;;-1.50;99.90;;;;;;5036176;28;20018;-77
2023/01/20 03:21:25;;;;;;;10.40;5.67;;;-1.50;99.90;;;;;;5021620;28;20021;-77
2023/01/20 03:23:53;;;;;;;9.33;5.27;;;-1.50;99.90;;;;;;5036201;28;20549;-77
2023/01/20 03:26:21;;;;;;;8.37;5.57;;;-1.50;99.90;;;;;;5035956;28;20032;-77
2023/01/20 03:28:48;;;;;;;8.07;5.20;;;-1.50;99.90;;;;;;5036302;28;20087;-77
2023/01/20 03:31:13;;;;;;;11.80;5.43;;;-1.50;99.90;;;;;;5023118;28;20076;-77
2023/01/20 03:33:39;;;;;;;11.70;6.10;;;-1.50;99.90;;;;;;5032404;28;20025;-77
2023/01/20 03:36:05;;;;;;;10.23;5.30;;;-1.50;99.90;;;;;;5035785;28;20390;-77
2023/01/20 03:38:30;;;;;;;8.30;5.80;;;-1.50;99.90;;;;;;5035764;28;20484;-77
2023/01/20 03:41:22;;;;;;;12.57;5.93;;;-1.50;99.90;;;;;;5035451;28;20041;-77
2023/01/20 03:43:57;;;;;;;7.37;4.90;;;-1.50;99.90;;;;;;5035774;28;20104;-77
2023/01/20 03:47:07;;;;;;;8.27;5.30;;;-1.50;99.90;;;;;;5035876;28;20093;-77
2023/01/20 03:49:45;;;;;;;10.10;5.27;;;-1.50;99.90;;;;;;5020356;28;20041;-77
2023/01/20 03:52:28;;;;;;;8.10;5.50;;;-1.50;99.90;;;;;;5035768;28;20033;-77
2023/01/20 03:55:01;;;;;;;10.37;5.77;;;-1.50;99.90;;;;;;5035510;28;20025;-77
2023/01/20 03:57:33;;;;;;;8.20;5.17;;;-1.50;99.90;;;;;;5017448;28;20109;-77
2023/01/20 04:00:01;;;;;;;9.90;6.10;;;-1.50;99.90;;;;;;5017521;28;20074;-77
2023/01/20 04:02:27;;;;;;;11.87;6.43;;;-1.50;99.90;;;;;;5035333;28;20021;-77
2023/01/20 04:04:54;;;;;;;8.63;6.03;;;-1.50;99.90;;;;;;5017506;28;20025;-77
2023/01/20 04:07:23;;;;;;;9.70;6.50;;;-1.50;99.90;;;;;;5035457;28;20100;-77
2023/01/20 04:09:53;;;;;;;10.23;5.93;;;-1.50;99.90;;;;;;5035114;28;20151;-77
2023/01/20 04:12:18;;;;;;;8.80;5.73;;;-1.50;99.90;;;;;;5015834;28;20099;-77
2023/01/20 04:14:44;;;;;;;8.33;5.70;;;-1.50;99.90;;;;;;5027164;28;20080;-77
2023/01/20 04:17:11;;;;;;;8.90;6.00;;;-1.50;99.90;;;;;;5035437;28;20402;-76
2023/01/20 04:19:36;;;;;;;8.97;6.17;;;-1.50;99.90;;;;;;5034954;28;20026;-77
2023/01/20 04:22:05;;;;;;;10.43;6.87;;;-1.50;99.90;;;;;;5034955;28;20384;-77
2023/01/20 04:24:42;;;;;;;10.93;6.60;;;-1.50;99.90;;;;;;5035021;28;20139;-77
2023/01/20 04:27:07;;;;;;;8.93;5.57;;;-1.50;99.90;;;;;;5034965;28;20021;-77
2023/01/20 04:29:33;;;;;;;11.03;6.50;;;-1.50;99.90;;;;;;5035398;28;20022;-77
2023/01/20 04:32:00;;;;;;;8.90;5.67;;;-1.50;99.90;;;;;;5016993;28;20032;-77
2023/01/20 04:34:26;;;;;;;9.40;5.80;;;-1.50;99.90;;;;;;5034789;28;20351;-77
2023/01/20 04:36:51;;;;;;;10.57;6.50;;;-1.60;99.90;;;;;;5017194;28;20107;-77
2023/01/20 04:39:17;;;;;;;9.23;6.10;;;-1.50;99.90;;;;;;5034683;28;20033;-77
2023/01/20 04:41:42;;;;;;;11.90;6.20;;;-1.50;99.90;;;;;;5016852;28;20037;-77
2023/01/20 04:44:08;;;;;;;8.03;6.13;;;-1.50;99.90;;;;;;5034520;28;20021;-77
2023/01/20 04:46:33;;;;;;;10.27;7.20;;;-1.50;99.90;;;;;;5034572;28;20466;-77
2023/01/20 04:48:59;;;;;;;11.90;6.87;;;-1.50;99.90;;;;;;5035033;28;20055;-77
2023/01/20 04:51:24;;;;;;;12.13;6.40;;;-1.50;99.90;;;;;;5016797;28;20112;-77
2023/01/20 04:53:50;;;;;;;9.90;6.80;;;-1.50;99.90;;;;;;5034310;28;20057;-77
2023/01/20 04:56:15;;;;;;;9.67;6.47;;;-1.50;99.90;;;;;;5034435;28;20076;-77
2023/01/20 04:58:42;;;;;;;10.07;6.60;;;-1.50;99.90;;;;;;5034554;28;20033;-77
2023/01/20 05:01:08;;;;;;;11.63;6.53;;;-1.50;99.90;;;;;;5034126;28;20025;-77
2023/01/20 05:03:33;;;;;;;11.03;6.80;;;-1.50;99.90;;;;;;5034232;28;20017;-77
2023/01/20 05:05:59;;;;;;;10.57;6.87;;;-1.50;99.90;;;;;;5016426;28;20064;-77
2023/01/20 05:08:24;;;;;;;11.57;6.60;;;-1.50;99.90;;;;;;5034123;28;20018;-76
2023/01/20 05:10:50;;;;;;;10.90;6.80;;;-1.50;99.90;;;;;;5034149;28;20025;-77
2023/01/20 05:13:16;;;;;;;11.60;7.43;;;-1.40;99.90;;;;;;5016772;28;20028;-77
2023/01/20 05:15:43;;;;;;;13.60;7.57;;;-1.40;99.90;;;;;;5016268;28;20068;-77
2023/01/20 05:18:08;;;;;;;13.67;7.80;;;-1.40;99.90;;;;;;5033831;28;20048;-76
2023/01/20 05:20:34;;;;;;;12.93;7.80;;;-1.40;99.90;;;;;;5033841;28;20481;-76
2023/01/20 05:22:59;;;;;;;11.77;7.80;;;-1.40;99.90;;;;;;5033938;28;20062;-77
2023/01/20 05:25:25;;;;;;;13.43;8.53;;;-1.40;99.90;;;;;;5033984;28;20025;-77
2023/01/20 05:27:51;;;;;;;15.07;8.53;;;-1.40;99.90;;;;;;5015671;28;20022;-81
2023/01/20 05:30:16;;;;;;;12.57;9.10;;;-1.50;99.90;;;;;;5009404;28;20029;-81
2023/01/20 05:32:44;;;;;;;15.13;9.97;;;-1.50;99.90;;;;;;5026527;28;20030;-81
2023/01/20 05:35:09;;;;;;;14.37;10.17;;;-1.50;99.90;;;;;;5025192;28;20478;-81
2023/01/20 05:37:35;;;;;;;12.83;7.67;;;-1.50;99.90;;;;;;5024838;28;20118;-81
2023/01/20 05:40:00;;;;;;;14.20;9.30;;;-1.50;99.90;;;;;;5028099;28;20045;-81
2023/01/20 05:42:26;;;;;;;15.53;9.20;;;-1.50;99.90;;;;;;5026478;28;20111;-81
2023/01/20 05:44:51;;;;;;;18.03;10.43;;;-1.60;99.90;;;;;;5006461;28;20521;-81
2023/01/20 05:47:17;;;;;;;15.67;9.40;;;-1.60;99.90;;;;;;5023798;28;20059;-81
2023/01/20 05:49:43;;;;;;;15.00;10.03;;;-1.60;99.90;;;;;;5026643;28;20616;-81
2023/01/20 05:52:08;;;;;;;16.37;10.70;;;-1.70;99.90;;;;;;5025011;28;20030;-81
2023/01/20 05:54:34;;;;;;;17.50;11.17;;;-1.70;99.90;;;;;;5007073;28;20069;-81
2023/01/20 05:57:00;;;;;;;18.13;12.03;;;-1.70;99.90;;;;;;5025053;28;20052;-81
2023/01/20 05:59:25;;;;;;;20.87;12.17;;;-1.80;99.90;;;;;;5025434;28;20021;-81
2023/01/20 06:01:51;;;;;;;17.73;12.00;;;-1.80;99.90;;;;;;5018474;28;20029;-81
2023/01/20 06:04:16;;;;;;;22.13;12.77;;;-1.80;99.90;;;;;;5013588;28;20351;-81
2023/01/20 06:06:42;;;;;;;19.23;12.20;;;-1.90;99.90;;;;;;5006810;28;20090;-77
2023/01/20 06:09:09;;;;;;;17.17;11.90;;;-1.90;99.90;;;;;;5022645;28;20116;-81
2023/01/20 06:11:35;;;;;;;18.90;13.20;;;-2.00;99.90;;;;;;5014178;28;20032;-81
2023/01/20 06:14:01;;;;;;;21.90;13.90;;;-2.00;99.90;;;;;;5017668;28;20029;-81
2023/01/20 06:16:26;;;;;;;20.70;13.50;;;-2.00;99.90;;;;;;5021720;28;20109;-81
2023/01/20 06:18:52;;;;;;;19.83;14.23;;;-2.10;99.90;;;;;;5009920;28;20116;-77
2023/01/20 06:21:17;;;;;;;23.43;14.43;;;-2.10;99.90;;;;;;5032661;28;20097;-77
2023/01/20 06:23:43;;;;;;;23.40;14.90;;;-2.10;99.90;;;;;;5024585;28;21494;-81
2023/01/20 06:26:11;;;;;;;31.50;17.97;;;-2.10;99.90;;;;;;4994582;28;20581;-81
2023/01/20 06:28:37;;;;;;;23.33;14.10;;;-2.10;99.90;;;;;;5007139;28;20136;-81
2023/01/20 06:31:06;;;;;;;22.77;14.93;;;-2.10;99.90;;;;;;5012111;28;20026;-81
2023/01/20 06:33:32;;;;;;;26.47;16.13;;;-2.10;99.90;;;;;;4992167;28;20064;-81
2023/01/20 06:35:58;;;;;;;25.17;15.77;;;-2.10;99.90;;;;;;4990127;28;21377;-81
2023/01/20 06:38:27;;;;;;;24.90;16.37;;;-2.20;99.90;;;;;;5010457;28;20034;-81
2023/01/20 06:41:01;;;;;;;26.13;16.30;;;-2.20;99.90;;;;;;4998474;28;20510;-81
2023/01/20 06:43:34;;;;;;;29.13;16.33;;;-2.10;99.90;;;;;;5011938;28;20029;-81
2023/01/20 06:46:00;;;;;;;26.97;16.20;;;-2.20;99.90;;;;;;5012722;28;20066;-81
2023/01/20 06:48:29;;;;;;;29.70;16.10;;;-2.20;99.90;;;;;;5000096;28;20144;-81
2023/01/20 06:51:07;;;;;;;26.63;16.10;;;-2.20;99.90;;;;;;5012050;28;20105;-81
2023/01/20 06:53:33;;;;;;;22.83;15.57;;;-2.20;99.90;;;;;;5012111;28;20026;-81
2023/01/20 06:56:00;;;;;;;23.50;15.37;;;-2.20;99.90;;;;;;5015497;28;20100;-81
2023/01/20 06:58:28;;;;;;;22.70;15.77;;;-2.20;99.90;;;;;;5011191;28;21008;-81
2023/01/20 07:00:54;;;;;;;24.03;15.17;;;-2.20;99.90;;;;;;4997933;28;20128;-81
2023/01/20 07:03:20;;;;;;;21.03;14.03;;;-2.20;99.90;;;;;;5014576;28;20104;-81
2023/01/20 07:05:56;;;;;;;22.63;15.20;;;-2.20;99.90;;;;;;5015417;28;20481;-81
2023/01/20 07:08:22;;;;;;;22.73;14.20;;;-2.20;99.90;;;;;;5012852;28;20030;-81
2023/01/20 07:10:47;;;;;;;22.03;14.93;;;-2.20;99.90;;;;;;5001364;28;20087;-81
2023/01/20 07:13:13;;;;;;;20.73;14.33;;;-2.20;99.90;;;;;;5018319;28;20032;-81
2023/01/20 07:15:38;;;;;;;22.53;14.43;;;-2.20;99.90;;;;;;5011319;28;20148;-81
2023/01/20 07:18:04;;;;;;;21.47;13.97;;;-2.20;99.90;;;;;;5004498;28;20112;-81
2023/01/20 07:20:29;;;;;;;21.43;13.70;;;-2.10;99.90;;;;;;5013447;28;20030;-81
2023/01/20 07:22:57;;;;;;;26.63;16.90;;;-2.10;99.90;;;;;;5008881;28;20857;-81
2023/01/20 07:25:23;;;;;;;28.30;16.43;;;-2.10;99.90;;;;;;5006541;28;20033;-81
2023/01/20 07:27:49;;;;;;;34.37;16.10;;;-2.10;99.90;;;;;;5006969;28;20030;-81
2023/01/20 07:30:15;;;;;;;33.53;18.00;;;-2.10;99.90;;;;;;5012498;28;20102;-81
2023/01/20 07:32:41;;;;;;;29.30;17.43;;;-2.10;99.90;;;;;;5017590;28;20021;-81
2023/01/20 07:35:06;;;;;;;23.10;15.57;;;-2.10;99.90;;;;;;5016280;28;20030;-81
2023/01/20 07:37:32;;;;;;;22.23;14.87;;;-2.10;99.90;;;;;;5015275;28;20661;-81
2023/01/20 07:39:58;;;;;;;22.17;15.20;;;-2.00;99.90;;;;;;5018108;28;20109;-81
2023/01/20 07:42:23;;;;;;;21.37;14.83;;;-2.00;99.90;;;;;;5017476;28;20025;-81
2023/01/20 07:44:49;;;;;;;23.17;15.17;;;-2.00;99.90;;;;;;5016880;28;20035;-81
2023/01/20 07:47:14;;;;;;;24.13;13.90;;;-2.00;99.90;;;;;;5015523;28;20028;-81
2023/01/20 07:49:40;;;;;;;22.53;14.97;;;-1.90;99.90;;;;;;5016632;28;20037;-81
2023/01/20 07:52:05;;;;;;;21.60;13.63;;;-1.90;99.90;;;;;;5015574;28;20081;-81
2023/01/20 07:54:31;;;;;;;22.00;13.70;;;-1.90;99.90;;;;;;5016468;28;20037;-81
2023/01/20 07:56:56;;;;;;;22.80;14.43;;;-1.80;99.90;;;;;;5016697;28;20393;-81
2023/01/20 07:59:22;;;;;;;22.33;14.40;;;-1.80;99.90;;;;;;5016870;28;20042;-81
2023/01/20 08:01:48;;;;;;;22.63;14.37;;;-1.80;99.90;;;;;;5017287;28;20096;-80
2023/01/20 08:04:14;;;;;;;22.70;13.60;;;-1.80;99.90;;;;;;5016360;28;20044;-81
2023/01/20 08:06:39;;;;;;;23.23;13.47;;;-1.70;99.90;;;;;;5016832;28;20167;-81
2023/01/20 08:09:07;;;;;;;19.97;14.20;;;-1.70;99.90;;;;;;5016379;28;20044;-81
2023/01/20 08:11:33;;;;;;;22.10;13.13;;;-1.70;99.90;;;;;;4996653;28;20051;-81
2023/01/20 08:13:58;;;;;;;20.83;13.87;;;-1.70;99.90;;;;;;5017063;28;20478;-81
2023/01/20 08:16:24;;;;;;;20.20;12.73;;;-1.70;99.90;;;;;;5017063;28;20042;-81
2023/01/20 08:18:53;;;;;;;19.53;12.80;;;-1.70;99.90;;;;;;5017521;28;20056;-81
2023/01/20 08:21:26;;;;;;;19.30;13.00;;;-1.60;99.90;;;;;;5015702;28;20034;-81
2023/01/20 08:23:54;;;;;;;19.97;13.17;;;-1.60;99.90;;;;;;4996700;28;20026;-81
2023/01/20 08:26:20;;;;;;;19.10;12.33;;;-1.50;99.90;;;;;;5017741;28;20501;-81
2023/01/20 08:28:46;;;;;;;20.17;12.87;;;-1.50;99.90;;;;;;5015919;28;20156;-80
2023/01/20 08:31:14;;;;;;;19.83;12.73;;;-1.40;99.90;;;;;;5014363;28;20034;-81
2023/01/20 08:33:43;;;;;;;21.73;12.73;;;-1.40;99.90;;;;;;5015816;28;20038;-81
2023/01/20 08:36:18;;;;;;;18.07;11.47;;;-1.40;99.90;;;;;;5015403;28;20509;-81
2023/01/20 08:38:44;;;;;;;20.30;12.23;;;-1.30;99.90;;;;;;5015894;28;20038;-81
2023/01/20 08:41:18;;;;;;;17.00;12.03;;;-1.30;99.90;;;;;;5018158;28;20099;-80
2023/01/20 08:43:44;;;;;;;19.93;12.43;;;-1.30;99.90;;;;;;4997470;28;20427;-80
2023/01/20 08:46:12;;;;;;;18.97;11.53;;;-1.20;99.90;;;;;;5017166;28;20060;-80
2023/01/20 08:48:39;;;;;;;18.70;11.90;;;-1.20;99.90;;;;;;5017276;28;20041;-80
2023/01/20 08:51:08;;;;;;;16.53;10.70;;;-1.10;99.90;;;;;;5017486;28;20137;-81
2023/01/20 08:53:34;;;;;;;16.53;11.33;;;-1.10;99.90;;;;;;5016861;28;20789;-81
2023/01/20 08:56:02;;;;;;;16.40;11.30;;;-1.10;99.90;;;;;;5018139;28;20180;-81
2023/01/20 08:58:28;;;;;;;16.97;11.43;;;-1.10;99.90;;;;;;5015733;28;20030;-80
2023/01/20 09:00:54;;;;;;;17.17;11.03;;;-1.10;99.90;;;;;;5014360;28;20106;-80
2023/01/20 09:03:20;;;;;;;17.93;11.40;;;-1.10;99.90;;;;;;5017196;28;20056;-81
2023/01/20 09:05:46;;;;;;;14.90;10.07;;;-1.00;99.90;;;;;;4997705;28;20022;-81
2023/01/20 09:08:12;;;;;;;15.23;9.50;;;-1.00;99.90;;;;;;5000860;28;20116;-79
2023/01/20 09:10:37;;;;;;;15.90;10.47;;;-1.00;99.90;;;;;;5018902;28;20033;-80
2023/01/20 09:13:03;;;;;;;18.13;10.20;;;-0.90;99.90;;;;;;5018648;28;20789;-81
2023/01/20 09:15:29;;;;;;;16.23;9.90;;;-0.90;99.90;;;;;;5019188;28;20159;-80
2023/01/20 09:17:54;;;;;;;16.27;10.23;;;-0.80;99.90;;;;;;5000101;28;20139;-80
2023/01/20 09:20:20;;;;;;;14.43;9.30;;;-0.80;99.90;;;;;;5014406;28;20033;-80
2023/01/20 09:22:45;;;;;;;17.07;9.20;;;-0.80;99.90;;;;;;5016452;28;20056;-80
2023/01/20 09:25:11;;;;;;;15.27;9.17;;;-0.80;99.90;;;;;;5014858;28;20076;-80
2023/01/20 09:27:37;;;;;;;12.57;8.53;;;-0.80;99.90;;;;;;5015255;28;20026;-80
2023/01/20 09:30:04;;;;;;;14.70;8.07;;;-0.70;99.90;;;;;;4996317;28;20461;-80
2023/01/20 09:32:29;;;;;;;11.33;7.20;;;-0.70;99.90;;;;;;5015990;28;20055;-80
2023/01/20 09:34:55;;;;;;;10.63;7.20;;;-0.60;99.90;;;;;;5015143;28;20026;-80
2023/01/20 09:46:27;;;;;;;10.33;6.90;;;-0.30;99.90;;;;;;5015287;28;20470;-80
2023/01/20 09:55:06;;;;;;;11.47;6.87;;;-0.20;99.90;;;;;;5015148;28;20079;-80
2023/01/20 09:57:36;;;;;;;8.13;6.38;;;-0.20;99.90;;;;;;4993769;28;20088;-80
2023/01/20 10:00:10;;;;;;;9.23;6.47;;;-0.10;99.90;;;;;;5015261;28;20140;-80
2023/01/20 10:02:37;;;;;;;10.05;6.15;;;-0.20;99.90;;;;;;5014101;28;20108;-80
2023/01/20 10:05:11;;;;;;;9.63;6.73;;;-0.20;99.90;;;;;;4993337;28;20096;-80
2023/01/20 10:07:51;;;;;;;10.60;6.50;;;-0.20;99.90;;;;;;5014931;28;20510;-80
2023/01/20 10:10:36;;;;;;;13.57;6.33;;;-0.20;99.90;;;;;;5014801;28;20908;-80
2023/01/20 10:13:13;;;;;;;;;;;-0.20;99.90;;;;;;5015944;28;20033;-80
2023/01/20 10:15:43;;;;;;;;;;;-0.10;99.90;;;;;;5014704;28;19913;-80
2023/01/20 10:18:16;;;;;;;9.80;7.17;;;-0.20;99.90;;;;;;5013370;28;19975;-80
2023/01/20 10:21:00;;;;;;;9.30;6.80;;;-0.20;99.90;;;;;;4993415;28;20037;-80
2023/01/20 10:23:33;;;;;;;10.63;6.43;;;-0.10;99.90;;;;;;5013791;28;20032;-80
2023/01/20 10:26:04;;;;;;;10.23;7.07;;;-0.10;99.90;;;;;;5013683;28;20489;-80
2023/01/20 10:28:36;;;;;;;12.17;7.20;;;-0.10;99.90;;;;;;5015783;28;20025;-80
2023/01/20 10:31:04;;;;;;;10.80;7.47;;;0.00;99.90;;;;;;5013583;28;20071;-81
2023/01/20 10:33:35;;;;;;;9.93;6.67;;;0.00;99.90;;;;;;5015637;28;20056;-80
2023/01/20 10:36:01;;;;;;;10.07;6.03;;;0.00;99.90;;;;;;5016223;28;20351;-81
2023/01/20 10:38:49;;;;;;;8.97;6.20;;;0.00;99.90;;;;;;5005373;28;20026;-84
2023/01/20 10:41:25;;;;;;;9.73;6.13;;;0.00;99.90;;;;;;5023871;28;20510;-89
2023/01/20 10:43:51;;;;;;;9.30;6.07;;;0.00;99.90;;;;;;5005435;28;20200;-88
2023/01/20 10:46:19;;;;;;;10.77;6.53;;;0.10;99.90;;;;;;5026457;28;20528;-89
2023/01/20 10:49:13;;;;;;;10.07;6.40;;;0.10;99.90;;;;;;5025643;28;20025;-87
2023/01/20 10:51:38;;;;;;;9.63;6.80;;;0.10;99.90;;;;;;5034283;28;20097;-87
2023/01/20 10:54:10;;;;;;;10.13;6.90;;;0.20;99.90;;;;;;5031281;28;20044;-87
2023/01/20 10:56:42;;;;;;;10.33;6.73;;;0.20;99.90;;;;;;5027801;28;20021;-87
2023/01/20 10:59:16;;;;;;;10.43;7.20;;;0.10;99.90;;;;;;5035458;28;20017;-87
2023/01/20 11:01:48;;;;;;;11.37;7.40;;;0.20;99.90;;;;;;5029139;28;20146;-87
2023/01/20 11:04:20;;;;;;;11.37;7.20;;;0.20;99.90;;;;;;5007086;28;20028;-87
2023/01/20 11:06:56;;;;;;;10.80;6.97;;;0.20;99.90;;;;;;5029930;28;20236;-87
2023/01/20 11:09:33;;;;;;;10.33;7.27;;;0.30;99.90;;;;;;5027856;28;20032;-87
2023/01/20 11:12:01;;;;;;;13.33;9.17;;;0.30;99.90;;;;;;5021153;28;20366;-87
2023/01/20 11:14:28;;;;;;;18.83;11.53;;;0.30;99.90;;;;;;5028582;28;20106;-87
2023/01/20 11:17:03;;;;;;;16.13;10.17;;;0.30;99.90;;;;;;5025473;28;20026;-87
2023/01/20 11:19:53;;;;;;;17.20;9.38;;;0.20;99.90;;;;;;5026168;28;20040;-87
2023/01/20 11:22:33;;;;;;;14.53;10.00;;;0.00;99.90;;;;;;5028878;28;20030;-87
2023/01/20 11:25:02;;;;;;;12.20;8.63;;;0.00;99.90;;;;;;5009898;28;20028;-87
2023/01/20 11:27:35;;;;;;;13.87;9.67;;;0.00;99.90;;;;;;5029698;28;20826;-87
2023/01/20 11:30:05;;;;;;;13.90;9.50;;;-0.10;99.90;;;;;;5029430;28;20061;-87
2023/01/20 11:32:38;;;;;;;16.43;11.17;;;-0.10;99.90;;;;;;5032568;28;20017;-87
2023/01/20 11:35:24;;;;;;;17.80;11.73;;;-0.10;99.90;;;;;;5009184;28;20032;-87
2023/01/20 11:37:51;;;;;;;19.43;11.13;;;0.00;99.90;;;;;;5024372;28;20053;-86
2023/01/20 11:40:18;;;;;;;19.50;13.20;;;0.00;99.90;;;;;;5033741;28;20040;-86
2023/01/20 11:42:46;;;;;;;20.77;14.17;;;0.00;99.90;;;;;;5033752;28;20075;-87
2023/01/20 11:45:31;;;;;;;28.03;17.10;;;0.10;99.90;;;;;;5033949;28;20457;-87
2023/01/20 11:48:26;;;;;;;20.70;13.10;;;0.20;99.90;;;;;;5035781;28;20013;-87
2023/01/20 11:50:59;;;;;;;19.47;11.53;;;0.20;99.90;;;;;;5015569;28;20116;-87
2023/01/20 11:53:34;;;;;;;21.37;12.10;;;0.20;99.90;;;;;;5031368;28;20407;-87
2023/01/20 11:56:13;;;;;;;17.10;11.25;;;0.30;99.90;;;;;;5035638;28;20026;-87
2023/01/20 11:58:53;;;;;;;20.67;12.90;;;0.30;99.90;;;;;;5019071;28;20112;-87
2023/01/20 12:01:48;;;;;;;18.67;13.30;;;0.30;99.90;;;;;;5032550;28;20022;-87
2023/01/20 12:04:32;;;;;;;20.17;13.27;;;0.20;99.90;;;;;;5017060;28;20092;-87
2023/01/20 12:06:57;;;;;;;24.07;12.97;;;0.20;99.90;;;;;;5028878;28;20553;-88
2023/01/20 12:09:33;;;;;;;19.93;13.27;;;0.20;99.90;;;;;;5027943;28;20050;-87
2023/01/20 12:12:57;;;;;;;18.83;13.53;;;0.30;99.90;;;;;;5008707;28;20037;-87
2023/01/20 12:15:26;;;;;;;23.13;15.10;;;0.20;99.90;;;;;;4951644;29;20366;-87
2023/01/20 12:18:25;;;;;;;24.20;15.57;;;0.20;99.90;;;;;;4999585;28;20812;-87
2023/01/20 12:21:00;;;;;;;24.80;16.57;;;0.10;99.90;;;;;;5025356;28;20030;-87
2023/01/20 12:23:45;;;;;;;25.35;16.52;;;0.10;99.90;;;;;;5034219;28;20038;-87
2023/01/20 12:26:15;;;;;;;24.80;16.10;;;0.10;99.90;;;;;;5029482;28;20041;-87
2023/01/20 12:28:59;;;;;;;37.13;19.73;;;0.10;99.90;;;;;;5017087;28;20367;-87
2023/01/20 12:31:24;;;;;;;32.20;19.73;;;0.20;99.90;;;;;;5031518;28;20421;-87
2023/01/20 12:34:11;;;;;;;28.30;17.67;;;0.00;99.90;;;;;;5035748;28;20025;-87
2023/01/20 12:37:06;;;;;;;29.73;17.90;;;0.00;99.90;;;;;;5029999;28;20870;-87
2023/01/20 12:40:12;;;;;;;29.45;19.40;;;0.00;99.90;;;;;;5017794;28;20025;-88
2023/01/20 12:42:52;;;;;;;29.50;18.92;;;0.10;99.90;;;;;;5030679;28;20368;-86
2023/01/20 12:45:49;;;;;;;23.03;15.47;;;0.10;99.90;;;;;;5039102;28;20036;-86
2023/01/20 12:48:38;;;;;;;25.20;17.67;;;0.10;99.90;;;;;;5030308;28;20033;-86
2023/01/20 12:55:17;;;;;;;25.30;17.33;;;0.00;99.90;;;;;;5053530;28;20024;-87
2023/01/20 12:58:14;;;;;;;26.58;18.25;;;0.00;99.90;;;;;;5053262;28;20034;-86
2023/01/20 13:01:11;;;;;;;27.20;17.97;;;-0.10;99.90;;;;;;5043437;28;20041;-87
2023/01/20 13:04:19;;;;;;;28.23;17.70;;;-0.10;99.90;;;;;;5045150;28;20465;-87
2023/01/20 13:06:55;;;;;;;28.07;18.60;;;-0.20;99.90;;;;;;5048454;28;20096;-86
2023/01/20 13:09:46;;;;;;;31.27;19.87;;;-0.20;99.90;;;;;;5029926;28;20021;-87
2023/01/20 13:12:30;;;;;;;26.10;18.30;;;-0.20;99.90;;;;;;5048661;28;20077;-87